sensor_id;sensor_type;location;lat;lon;timestamp;temperature;humidity
64685;DHT22;51109;47.414;18.954;2023-10-31T00:02:23;14.90;99.90
64685;DHT22;51109;47.414;18.954;2023-10-31T00:04:49;14.90;99.90
64685;DHT22;51109;47.414;18.954;2023-10-31T00:07:15;14.90;99.90
64685;DHT22;51109;47.414;18.954;2023-10-31T00:09:41;14.90;99.90
64685;DHT22;51109;47.414;18.954;2023-10-31T00:12:07;14.90;99.90
64685;DHT22;51109;47.414;18.954;2023-10-31T00:14:33;14.80;99.90
64685;DHT22;51109;47.414;18.954;2023-10-31T00:16:59;14.90;99.90
64685;DHT22;51109;47.414;18.954;2023-10-31T00:19:25;14.90;99.90
64685;DHT22;51109;47.414;18.954;2023-10-31T00:21:51;14.90;99.90
64685;DHT22;51109;47.414;18.954;2023-10-31T00:24:17;14.90;99.90
64685;DHT22;51109;47.414;18.954;2023-10-31T00:26:43;14.90;99.90
64685;DHT22;51109;47.414;18.954;2023-10-31T00:29:08;14.80;99.90
64685;DHT22;51109;47.414;18.954;2023-10-31T00:31:34;14.80;99.90
64685;DHT22;51109;47.414;18.954;2023-10-31T00:34:01;14.80;99.90
64685;DHT22;51109;47.414;18.954;2023-10-31T00:36:27;14.80;99.90
64685;DHT22;51109;47.414;18.954;2023-10-31T00:38:53;14.80;99.90
64685;DHT22;51109;47.414;18.954;2023-10-31T00:41:19;14.80;99.90
64685;DHT22;51109;47.414;18.954;2023-10-31T00:43:44;14.80;99.90
64685;DHT22;51109;47.414;18.954;2023-10-31T00:46:11;14.80;99.90
64685;DHT22;51109;47.414;18.954;2023-10-31T00:48:37;14.80;99.90
64685;DHT22;51109;47.414;18.954;2023-10-31T00:51:03;14.80;99.90
64685;DHT22;51109;47.414;18.954;2023-10-31T00:53:29;14.70;99.90
64685;DHT22;51109;47.414;18.954;2023-10-31T00:55:55;14.70;99.90
64685;DHT22;51109;47.414;18.954;2023-10-31T00:58:21;14.70;99.90
64685;DHT22;51109;47.414;18.954;2023-10-31T01:00:47;14.80;99.90
64685;DHT22;51109;47.414;18.954;2023-10-31T01:03:13;14.80;99.90
64685;DHT22;51109;47.414;18.954;2023-10-31T01:05:39;14.90;99.90
64685;DHT22;51109;47.414;18.954;2023-10-31T01:08:05;14.90;99.90
64685;DHT22;51109;47.414;18.954;2023-10-31T01:10:31;14.80;99.90
64685;DHT22;51109;47.414;18.954;2023-10-31T01:12:56;14.80;99.90
64685;DHT22;51109;47.414;18.954;2023-10-31T01:15:22;14.80;99.90
64685;DHT22;51109;47.414;18.954;2023-10-31T01:17:48;14.80;99.90
64685;DHT22;51109;47.414;18.954;2023-10-31T01:20:14;14.80;99.90
64685;DHT22;51109;47.414;18.954;2023-10-31T01:22:40;14.80;99.90
64685;DHT22;51109;47.414;18.954;2023-10-31T01:25:06;14.80;99.90
64685;DHT22;51109;47.414;18.954;2023-10-31T01:27:39;14.80;99.90
64685;DHT22;51109;47.414;18.954;2023-10-31T01:30:05;14.70;99.90
64685;DHT22;51109;47.414;18.954;2023-10-31T01:32:31;14.70;99.90
64685;DHT22;51109;47.414;18.954;2023-10-31T01:34:57;14.70;99.90
64685;DHT22;51109;47.414;18.954;2023-10-31T01:37:23;14.70;99.90
64685;DHT22;51109;47.414;18.954;2023-10-31T01:39:49;14.70;99.90
64685;DHT22;51109;47.414;18.954;2023-10-31T01:42:15;14.70;99.90
64685;DHT22;51109;47.414;18.954;2023-10-31T01:44:41;14.60;99.90
64685;DHT22;51109;47.414;18.954;2023-10-31T01:47:07;14.60;99.90
64685;DHT22;51109;47.414;18.954;2023-10-31T01:49:34;14.60;99.90
64685;DHT22;51109;47.414;18.954;2023-10-31T01:52:02;14.50;99.90
64685;DHT22;51109;47.414;18.954;2023-10-31T01:54:29;14.60;99.90
64685;DHT22;51109;47.414;18.954;2023-10-31T01:56:56;14.60;99.90
64685;DHT22;51109;47.414;18.954;2023-10-31T01:59:27;14.60;99.90
64685;DHT22;51109;47.414;18.954;2023-10-31T02:01:54;14.60;99.90
64685;DHT22;51109;47.414;18.954;2023-10-31T02:04:20;14.60;99.90
64685;DHT22;51109;47.414;18.954;2023-10-31T02:06:46;14.70;99.90
64685;DHT22;51109;47.414;18.954;2023-10-31T02:09:12;14.50;99.90
64685;DHT22;51109;47.414;18.954;2023-10-31T02:11:38;14.50;99.90
64685;DHT22;51109;47.414;18.954;2023-10-31T02:14:03;14.60;99.90
64685;DHT22;51109;47.414;18.954;2023-10-31T02:16:29;14.60;99.90
64685;DHT22;51109;47.414;18.954;2023-10-31T02:18:55;14.60;99.90
64685;DHT22;51109;47.414;18.954;2023-10-31T02:21:22;14.50;99.90
64685;DHT22;51109;47.414;18.954;2023-10-31T02:23:57;14.50;99.90
64685;DHT22;51109;47.414;18.954;2023-10-31T02:26:28;14.50;99.90
64685;DHT22;51109;47.414;18.954;2023-10-31T02:28:54;14.50;99.90
64685;DHT22;51109;47.414;18.954;2023-10-31T02:31:20;14.40;99.90
64685;DHT22;51109;47.414;18.954;2023-10-31T02:33:46;14.50;99.90
64685;DHT22;51109;47.414;18.954;2023-10-31T02:36:12;14.60;99.90
64685;DHT22;51109;47.414;18.954;2023-10-31T02:38:38;14.50;99.90
64685;DHT22;51109;47.414;18.954;2023-10-31T02:41:04;14.50;99.90
64685;DHT22;51109;47.414;18.954;2023-10-31T02:43:29;14.50;99.90
64685;DHT22;51109;47.414;18.954;2023-10-31T02:45:55;14.50;99.90
64685;DHT22;51109;47.414;18.954;2023-10-31T02:48:21;14.50;99.90
64685;DHT22;51109;47.414;18.954;2023-10-31T02:50:47;14.50;99.90
64685;DHT22;51109;47.414;18.954;2023-10-31T02:53:13;14.60;99.90
64685;DHT22;51109;47.414;18.954;2023-10-31T02:55:39;14.40;99.90
64685;DHT22;51109;47.414;18.954;2023-10-31T02:58:04;14.60;99.90
64685;DHT22;51109;47.414;18.954;2023-10-31T03:00:30;14.50;99.90
64685;DHT22;51109;47.414;18.954;2023-10-31T03:02:56;14.50;99.90
64685;DHT22;51109;47.414;18.954;2023-10-31T03:05:22;14.50;99.90
64685;DHT22;51109;47.414;18.954;2023-10-31T03:07:48;14.50;99.90
64685;DHT22;51109;47.414;18.954;2023-10-31T03:10:14;14.50;99.90
64685;DHT22;51109;47.414;18.954;2023-10-31T03:12:39;14.50;99.90
64685;DHT22;51109;47.414;18.954;2023-10-31T03:15:06;14.50;99.90
64685;DHT22;51109;47.414;18.954;2023-10-31T03:17:32;14.50;99.90
64685;DHT22;51109;47.414;18.954;2023-10-31T03:19:58;14.50;99.90
64685;DHT22;51109;47.414;18.954;2023-10-31T03:22:23;14.40;99.90
64685;DHT22;51109;47.414;18.954;2023-10-31T03:24:49;14.50;99.90
64685;DHT22;51109;47.414;18.954;2023-10-31T03:27:15;14.50;99.90
64685;DHT22;51109;47.414;18.954;2023-10-31T03:29:41;14.40;99.90
64685;DHT22;51109;47.414;18.954;2023-10-31T03:32:07;14.40;99.90
64685;DHT22;51109;47.414;18.954;2023-10-31T03:34:33;14.30;99.90
64685;DHT22;51109;47.414;18.954;2023-10-31T03:36:59;14.30;99.90
64685;DHT22;51109;47.414;18.954;2023-10-31T03:39:24;14.30;99.90
64685;DHT22;51109;47.414;18.954;2023-10-31T03:41:50;14.30;99.90
64685;DHT22;51109;47.414;18.954;2023-10-31T03:44:16;14.30;99.90
64685;DHT22;51109;47.414;18.954;2023-10-31T03:46:42;14.40;99.90
64685;DHT22;51109;47.414;18.954;2023-10-31T03:49:08;14.30;99.90
64685;DHT22;51109;47.414;18.954;2023-10-31T03:51:34;14.20;99.90
64685;DHT22;51109;47.414;18.954;2023-10-31T03:54:00;14.10;99.90
64685;DHT22;51109;47.414;18.954;2023-10-31T03:56:26;14.00;99.90
64685;DHT22;51109;47.414;18.954;2023-10-31T03:58:52;14.00;99.90
64685;DHT22;51109;47.414;18.954;2023-10-31T04:01:18;14.00;99.90
64685;DHT22;51109;47.414;18.954;2023-10-31T04:03:44;14.00;99.90
64685;DHT22;51109;47.414;18.954;2023-10-31T04:06:10;13.90;99.90
64685;DHT22;51109;47.414;18.954;2023-10-31T04:08:36;14.00;99.90
64685;DHT22;51109;47.414;18.954;2023-10-31T04:11:02;14.00;99.90
64685;DHT22;51109;47.414;18.954;2023-10-31T04:13:27;14.00;99.90
64685;DHT22;51109;47.414;18.954;2023-10-31T04:15:53;14.10;99.90
64685;DHT22;51109;47.414;18.954;2023-10-31T04:18:19;14.00;99.90
64685;DHT22;51109;47.414;18.954;2023-10-31T04:20:45;14.00;99.90
64685;DHT22;51109;47.414;18.954;2023-10-31T04:23:11;13.90;99.90
64685;DHT22;51109;47.414;18.954;2023-10-31T04:25:37;13.90;99.90
64685;DHT22;51109;47.414;18.954;2023-10-31T04:28:03;13.90;99.90
64685;DHT22;51109;47.414;18.954;2023-10-31T04:30:29;13.90;99.90
64685;DHT22;51109;47.414;18.954;2023-10-31T04:32:55;14.00;99.90
64685;DHT22;51109;47.414;18.954;2023-10-31T04:35:21;14.00;99.90
64685;DHT22;51109;47.414;18.954;2023-10-31T04:37:47;14.00;99.90
64685;DHT22;51109;47.414;18.954;2023-10-31T04:40:13;14.00;99.90
64685;DHT22;51109;47.414;18.954;2023-10-31T04:42:39;14.10;99.90
64685;DHT22;51109;47.414;18.954;2023-10-31T04:45:06;14.10;99.90
64685;DHT22;51109;47.414;18.954;2023-10-31T04:47:33;14.00;99.90
64685;DHT22;51109;47.414;18.954;2023-10-31T04:49:59;14.10;99.90
64685;DHT22;51109;47.414;18.954;2023-10-31T04:52:24;14.20;99.90
64685;DHT22;51109;47.414;18.954;2023-10-31T04:54:51;14.20;99.90
64685;DHT22;51109;47.414;18.954;2023-10-31T04:57:17;14.20;99.90
64685;DHT22;51109;47.414;18.954;2023-10-31T04:59:43;14.30;99.90
64685;DHT22;51109;47.414;18.954;2023-10-31T05:02:09;14.20;99.90
64685;DHT22;51109;47.414;18.954;2023-10-31T05:04:38;14.20;99.90
64685;DHT22;51109;47.414;18.954;2023-10-31T05:07:05;14.30;99.90
64685;DHT22;51109;47.414;18.954;2023-10-31T05:09:31;14.20;99.90
64685;DHT22;51109;47.414;18.954;2023-10-31T05:11:56;14.20;99.90
64685;DHT22;51109;47.414;18.954;2023-10-31T05:14:22;14.20;99.90
64685;DHT22;51109;47.414;18.954;2023-10-31T05:16:48;14.20;99.90
64685;DHT22;51109;47.414;18.954;2023-10-31T05:19:14;14.20;99.90
64685;DHT22;51109;47.414;18.954;2023-10-31T05:21:40;14.20;99.90
64685;DHT22;51109;47.414;18.954;2023-10-31T05:24:06;14.20;99.90
64685;DHT22;51109;47.414;18.954;2023-10-31T05:26:32;14.20;99.90
64685;DHT22;51109;47.414;18.954;2023-10-31T05:28:58;14.10;99.90
64685;DHT22;51109;47.414;18.954;2023-10-31T05:31:25;14.10;99.90
64685;DHT22;51109;47.414;18.954;2023-10-31T05:33:51;14.10;99.90
64685;DHT22;51109;47.414;18.954;2023-10-31T05:36:22;14.10;99.90
64685;DHT22;51109;47.414;18.954;2023-10-31T05:38:49;14.00;99.90
64685;DHT22;51109;47.414;18.954;2023-10-31T05:41:15;14.00;99.90
64685;DHT22;51109;47.414;18.954;2023-10-31T05:43:41;13.90;99.90
64685;DHT22;51109;47.414;18.954;2023-10-31T05:46:08;13.90;99.90
64685;DHT22;51109;47.414;18.954;2023-10-31T05:48:39;13.80;99.90
64685;DHT22;51109;47.414;18.954;2023-10-31T05:51:17;13.70;99.90
64685;DHT22;51109;47.414;18.954;2023-10-31T05:53:48;13.60;99.90
64685;DHT22;51109;47.414;18.954;2023-10-31T05:56:15;13.60;99.90
64685;DHT22;51109;47.414;18.954;2023-10-31T05:58:42;13.50;99.90
64685;DHT22;51109;47.414;18.954;2023-10-31T06:01:08;13.50;99.90
64685;DHT22;51109;47.414;18.954;2023-10-31T06:03:34;13.50;99.90
64685;DHT22;51109;47.414;18.954;2023-10-31T06:06:00;13.50;99.90
64685;DHT22;51109;47.414;18.954;2023-10-31T06:08:26;13.50;99.90
64685;DHT22;51109;47.414;18.954;2023-10-31T06:10:56;13.50;99.90
64685;DHT22;51109;47.414;18.954;2023-10-31T06:13:22;13.50;99.90
64685;DHT22;51109;47.414;18.954;2023-10-31T06:15:48;13.50;99.90
64685;DHT22;51109;47.414;18.954;2023-10-31T06:18:14;13.40;99.90
64685;DHT22;51109;47.414;18.954;2023-10-31T06:20:39;13.50;99.90
64685;DHT22;51109;47.414;18.954;2023-10-31T06:23:05;13.50;99.90
64685;DHT22;51109;47.414;18.954;2023-10-31T06:25:31;13.60;99.90
64685;DHT22;51109;47.414;18.954;2023-10-31T06:27:57;13.70;99.90
64685;DHT22;51109;47.414;18.954;2023-10-31T06:30:23;13.70;99.90
64685;DHT22;51109;47.414;18.954;2023-10-31T06:32:54;13.80;99.90
64685;DHT22;51109;47.414;18.954;2023-10-31T06:35:19;13.90;99.90
64685;DHT22;51109;47.414;18.954;2023-10-31T06:37:45;13.90;99.90
64685;DHT22;51109;47.414;18.954;2023-10-31T06:40:11;13.80;99.90
64685;DHT22;51109;47.414;18.954;2023-10-31T06:42:37;13.90;99.90
64685;DHT22;51109;47.414;18.954;2023-10-31T06:45:04;13.90;99.90
64685;DHT22;51109;47.414;18.954;2023-10-31T06:47:30;13.90;99.90
64685;DHT22;51109;47.414;18.954;2023-10-31T06:49:56;13.80;99.90
64685;DHT22;51109;47.414;18.954;2023-10-31T06:52:22;13.90;99.90
64685;DHT22;51109;47.414;18.954;2023-10-31T06:54:48;13.90;99.90
64685;DHT22;51109;47.414;18.954;2023-10-31T06:57:13;14.00;99.90
64685;DHT22;51109;47.414;18.954;2023-10-31T06:59:41;14.00;99.90
64685;DHT22;51109;47.414;18.954;2023-10-31T07:02:07;14.00;99.90
64685;DHT22;51109;47.414;18.954;2023-10-31T07:04:34;14.10;99.90
64685;DHT22;51109;47.414;18.954;2023-10-31T07:07:00;14.10;99.90
64685;DHT22;51109;47.414;18.954;2023-10-31T07:09:26;14.10;99.90
64685;DHT22;51109;47.414;18.954;2023-10-31T07:11:53;14.10;99.90
64685;DHT22;51109;47.414;18.954;2023-10-31T07:14:19;14.20;99.90
64685;DHT22;51109;47.414;18.954;2023-10-31T07:16:44;14.10;99.90
64685;DHT22;51109;47.414;18.954;2023-10-31T07:19:11;14.20;99.90
64685;DHT22;51109;47.414;18.954;2023-10-31T07:21:36;14.20;99.90
64685;DHT22;51109;47.414;18.954;2023-10-31T07:24:02;14.30;99.90
64685;DHT22;51109;47.414;18.954;2023-10-31T07:26:28;14.30;99.90
64685;DHT22;51109;47.414;18.954;2023-10-31T07:28:54;14.40;99.90
64685;DHT22;51109;47.414;18.954;2023-10-31T07:31:20;14.50;99.90
64685;DHT22;51109;47.414;18.954;2023-10-31T07:33:46;14.50;99.90
64685;DHT22;51109;47.414;18.954;2023-10-31T07:36:12;14.50;99.90
64685;DHT22;51109;47.414;18.954;2023-10-31T07:38:38;14.50;99.90
64685;DHT22;51109;47.414;18.954;2023-10-31T07:41:04;14.50;99.90
64685;DHT22;51109;47.414;18.954;2023-10-31T07:43:30;14.50;99.90
64685;DHT22;51109;47.414;18.954;2023-10-31T07:45:55;14.60;99.90
64685;DHT22;51109;47.414;18.954;2023-10-31T07:48:21;14.60;99.90
64685;DHT22;51109;47.414;18.954;2023-10-31T07:50:47;14.70;99.90
64685;DHT22;51109;47.414;18.954;2023-10-31T07:53:13;14.70;99.90
64685;DHT22;51109;47.414;18.954;2023-10-31T07:55:39;14.80;99.90
64685;DHT22;51109;47.414;18.954;2023-10-31T07:58:05;14.90;99.90
64685;DHT22;51109;47.414;18.954;2023-10-31T08:00:30;15.00;99.90
64685;DHT22;51109;47.414;18.954;2023-10-31T08:02:58;15.20;99.90
64685;DHT22;51109;47.414;18.954;2023-10-31T08:05:24;15.30;99.90
64685;DHT22;51109;47.414;18.954;2023-10-31T08:07:50;15.50;99.90
64685;DHT22;51109;47.414;18.954;2023-10-31T08:10:16;15.60;99.90
64685;DHT22;51109;47.414;18.954;2023-10-31T08:12:42;15.50;99.90
64685;DHT22;51109;47.414;18.954;2023-10-31T08:15:08;15.40;99.90
64685;DHT22;51109;47.414;18.954;2023-10-31T08:17:35;15.40;99.90
64685;DHT22;51109;47.414;18.954;2023-10-31T08:20:01;15.40;99.90
64685;DHT22;51109;47.414;18.954;2023-10-31T08:22:29;15.30;99.90
64685;DHT22;51109;47.414;18.954;2023-10-31T08:24:55;15.10;99.90
64685;DHT22;51109;47.414;18.954;2023-10-31T08:27:21;15.30;99.90
64685;DHT22;51109;47.414;18.954;2023-10-31T08:29:47;15.40;99.90
64685;DHT22;51109;47.414;18.954;2023-10-31T08:32:13;15.40;99.90
64685;DHT22;51109;47.414;18.954;2023-10-31T08:34:38;15.40;99.90
64685;DHT22;51109;47.414;18.954;2023-10-31T08:37:04;15.40;99.90
64685;DHT22;51109;47.414;18.954;2023-10-31T08:39:30;15.50;99.90
64685;DHT22;51109;47.414;18.954;2023-10-31T08:41:57;15.50;99.90
64685;DHT22;51109;47.414;18.954;2023-10-31T08:44:23;15.60;99.90
64685;DHT22;51109;47.414;18.954;2023-10-31T08:46:49;15.70;99.90
64685;DHT22;51109;47.414;18.954;2023-10-31T08:49:15;15.70;99.90
64685;DHT22;51109;47.414;18.954;2023-10-31T08:51:42;15.80;99.90
64685;DHT22;51109;47.414;18.954;2023-10-31T08:54:08;15.90;99.90
64685;DHT22;51109;47.414;18.954;2023-10-31T08:56:35;15.90;99.90
64685;DHT22;51109;47.414;18.954;2023-10-31T08:59:01;15.90;99.90
64685;DHT22;51109;47.414;18.954;2023-10-31T09:01:27;16.00;99.90
64685;DHT22;51109;47.414;18.954;2023-10-31T09:03:55;16.10;99.90
64685;DHT22;51109;47.414;18.954;2023-10-31T09:06:21;16.10;99.90
64685;DHT22;51109;47.414;18.954;2023-10-31T09:08:47;16.10;99.90
64685;DHT22;51109;47.414;18.954;2023-10-31T09:11:12;16.20;99.90
64685;DHT22;51109;47.414;18.954;2023-10-31T09:13:38;16.20;99.90
64685;DHT22;51109;47.414;18.954;2023-10-31T09:16:04;16.30;99.90
64685;DHT22;51109;47.414;18.954;2023-10-31T09:18:30;16.40;99.90
64685;DHT22;51109;47.414;18.954;2023-10-31T09:20:56;16.50;99.90
64685;DHT22;51109;47.414;18.954;2023-10-31T09:23:22;16.60;99.90
64685;DHT22;51109;47.414;18.954;2023-10-31T09:25:48;16.60;99.90
64685;DHT22;51109;47.414;18.954;2023-10-31T09:28:14;16.60;99.90
64685;DHT22;51109;47.414;18.954;2023-10-31T09:30:39;16.70;99.90
64685;DHT22;51109;47.414;18.954;2023-10-31T09:33:05;16.70;99.90
64685;DHT22;51109;47.414;18.954;2023-10-31T09:35:31;16.70;99.90
64685;DHT22;51109;47.414;18.954;2023-10-31T09:37:57;16.70;99.90
64685;DHT22;51109;47.414;18.954;2023-10-31T09:40:23;16.70;99.90
64685;DHT22;51109;47.414;18.954;2023-10-31T09:42:49;16.70;99.90
64685;DHT22;51109;47.414;18.954;2023-10-31T09:45:15;16.80;99.90
64685;DHT22;51109;47.414;18.954;2023-10-31T09:47:42;16.90;99.90
64685;DHT22;51109;47.414;18.954;2023-10-31T09:50:09;17.00;99.90
64685;DHT22;51109;47.414;18.954;2023-10-31T09:52:38;17.00;99.90
64685;DHT22;51109;47.414;18.954;2023-10-31T09:55:04;17.00;99.90
64685;DHT22;51109;47.414;18.954;2023-10-31T09:57:31;17.00;99.90
64685;DHT22;51109;47.414;18.954;2023-10-31T09:59:57;17.10;99.90
64685;DHT22;51109;47.414;18.954;2023-10-31T10:02:24;17.10;99.90
64685;DHT22;51109;47.414;18.954;2023-10-31T10:04:50;17.10;99.90
64685;DHT22;51109;47.414;18.954;2023-10-31T10:07:17;17.10;99.90
64685;DHT22;51109;47.414;18.954;2023-10-31T10:09:44;17.10;99.90
64685;DHT22;51109;47.414;18.954;2023-10-31T10:12:13;17.20;99.90
64685;DHT22;51109;47.414;18.954;2023-10-31T10:14:40;17.20;99.90
64685;DHT22;51109;47.414;18.954;2023-10-31T10:17:22;17.20;99.90
64685;DHT22;51109;47.414;18.954;2023-10-31T10:19:54;17.30;99.90
64685;DHT22;51109;47.414;18.954;2023-10-31T10:22:30;17.30;99.90
64685;DHT22;51109;47.414;18.954;2023-10-31T10:24:55;17.40;99.90
64685;DHT22;51109;47.414;18.954;2023-10-31T10:27:21;17.50;99.90
64685;DHT22;51109;47.414;18.954;2023-10-31T10:29:47;17.50;99.90
64685;DHT22;51109;47.414;18.954;2023-10-31T10:32:13;17.70;99.90
64685;DHT22;51109;47.414;18.954;2023-10-31T10:34:42;17.90;99.90
64685;DHT22;51109;47.414;18.954;2023-10-31T10:37:08;17.90;99.90
64685;DHT22;51109;47.414;18.954;2023-10-31T10:39:35;18.00;99.90
64685;DHT22;51109;47.414;18.954;2023-10-31T10:42:09;18.00;99.90
64685;DHT22;51109;47.414;18.954;2023-10-31T10:44:36;18.00;99.90
64685;DHT22;51109;47.414;18.954;2023-10-31T10:47:07;18.00;99.90
64685;DHT22;51109;47.414;18.954;2023-10-31T10:49:34;18.10;99.90
64685;DHT22;51109;47.414;18.954;2023-10-31T10:52:17;18.10;99.90
64685;DHT22;51109;47.414;18.954;2023-10-31T10:57:50;18.10;99.90
64685;DHT22;51109;47.414;18.954;2023-10-31T11:00:20;18.20;99.90
64685;DHT22;51109;47.414;18.954;2023-10-31T11:02:51;18.20;99.90
64685;DHT22;51109;47.414;18.954;2023-10-31T11:05:18;18.20;99.90
64685;DHT22;51109;47.414;18.954;2023-10-31T11:07:45;18.20;99.90
64685;DHT22;51109;47.414;18.954;2023-10-31T11:10:12;18.20;99.90
64685;DHT22;51109;47.414;18.954;2023-10-31T11:12:38;18.20;99.90
64685;DHT22;51109;47.414;18.954;2023-10-31T11:15:08;18.20;99.90
64685;DHT22;51109;47.414;18.954;2023-10-31T11:17:37;18.10;99.90
64685;DHT22;51109;47.414;18.954;2023-10-31T11:20:04;18.10;99.90
64685;DHT22;51109;47.414;18.954;2023-10-31T11:22:38;18.00;99.90
64685;DHT22;51109;47.414;18.954;2023-10-31T11:25:06;18.10;99.90
64685;DHT22;51109;47.414;18.954;2023-10-31T11:27:34;18.10;99.90
64685;DHT22;51109;47.414;18.954;2023-10-31T11:30:08;18.10;99.90
64685;DHT22;51109;47.414;18.954;2023-10-31T11:32:34;17.90;99.90
64685;DHT22;51109;47.414;18.954;2023-10-31T11:35:01;17.80;99.90
64685;DHT22;51109;47.414;18.954;2023-10-31T11:37:32;17.70;99.90
64685;DHT22;51109;47.414;18.954;2023-10-31T11:40:15;17.60;99.90
64685;DHT22;51109;47.414;18.954;2023-10-31T11:42:42;17.40;99.90
64685;DHT22;51109;47.414;18.954;2023-10-31T11:45:08;17.50;99.90
64685;DHT22;51109;47.414;18.954;2023-10-31T11:47:50;17.60;99.90
64685;DHT22;51109;47.414;18.954;2023-10-31T11:50:17;17.10;99.90
64685;DHT22;51109;47.414;18.954;2023-10-31T11:52:43;17.30;99.90
64685;DHT22;51109;47.414;18.954;2023-10-31T11:55:10;17.20;99.90
64685;DHT22;51109;47.414;18.954;2023-10-31T11:57:38;17.20;99.90
64685;DHT22;51109;47.414;18.954;2023-10-31T12:00:05;17.10;99.90
64685;DHT22;51109;47.414;18.954;2023-10-31T12:02:33;17.00;99.90
64685;DHT22;51109;47.414;18.954;2023-10-31T12:05:12;17.00;99.90
64685;DHT22;51109;47.414;18.954;2023-10-31T12:07:45;16.80;99.90
64685;DHT22;51109;47.414;18.954;2023-10-31T12:10:12;16.70;99.90
64685;DHT22;51109;47.414;18.954;2023-10-31T12:12:38;16.80;99.90
64685;DHT22;51109;47.414;18.954;2023-10-31T12:15:06;16.90;99.90
64685;DHT22;51109;47.414;18.954;2023-10-31T12:17:32;17.00;99.90
64685;DHT22;51109;47.414;18.954;2023-10-31T12:20:03;16.50;99.90
64685;DHT22;51109;47.414;18.954;2023-10-31T12:22:29;15.80;99.90
64685;DHT22;51109;47.414;18.954;2023-10-31T12:25:06;15.50;99.90
64685;DHT22;51109;47.414;18.954;2023-10-31T12:27:47;15.30;99.90
64685;DHT22;51109;47.414;18.954;2023-10-31T12:43:30;14.00;99.90
64685;DHT22;51109;47.414;18.954;2023-10-31T12:45:55;14.00;99.90
64685;DHT22;51109;47.414;18.954;2023-10-31T12:48:24;14.00;99.90
64685;DHT22;51109;47.414;18.954;2023-10-31T12:51:06;14.00;99.90
64685;DHT22;51109;47.414;18.954;2023-10-31T12:53:34;13.90;99.90
64685;DHT22;51109;47.414;18.954;2023-10-31T12:56:00;14.00;99.90
64685;DHT22;51109;47.414;18.954;2023-10-31T12:58:26;14.10;99.90
64685;DHT22;51109;47.414;18.954;2023-10-31T13:00:52;13.80;99.90
64685;DHT22;51109;47.414;18.954;2023-10-31T13:03:19;13.80;99.90
64685;DHT22;51109;47.414;18.954;2023-10-31T13:05:46;13.80;99.90
64685;DHT22;51109;47.414;18.954;2023-10-31T13:08:15;13.90;99.90
64685;DHT22;51109;47.414;18.954;2023-10-31T13:10:41;13.80;99.90
64685;DHT22;51109;47.414;18.954;2023-10-31T13:13:08;13.80;99.90
64685;DHT22;51109;47.414;18.954;2023-10-31T13:15:34;13.90;99.90
64685;DHT22;51109;47.414;18.954;2023-10-31T13:31:04;13.50;99.90
64685;DHT22;51109;47.414;18.954;2023-10-31T13:33:30;13.40;99.90
64685;DHT22;51109;47.414;18.954;2023-10-31T13:35:56;13.50;99.90
64685;DHT22;51109;47.414;18.954;2023-10-31T13:38:22;13.40;99.90
64685;DHT22;51109;47.414;18.954;2023-10-31T13:40:48;13.30;99.90
64685;DHT22;51109;47.414;18.954;2023-10-31T13:43:13;13.30;99.90
64685;DHT22;51109;47.414;18.954;2023-10-31T13:45:39;13.10;99.90
64685;DHT22;51109;47.414;18.954;2023-10-31T13:48:05;13.10;99.90
64685;DHT22;51109;47.414;18.954;2023-10-31T13:50:31;12.90;99.90
64685;DHT22;51109;47.414;18.954;2023-10-31T13:52:57;12.80;99.90
64685;DHT22;51109;47.414;18.954;2023-10-31T13:57:49;12.70;99.90
64685;DHT22;51109;47.414;18.954;2023-10-31T14:00:15;12.60;99.90
64685;DHT22;51109;47.414;18.954;2023-10-31T14:02:41;12.50;99.90
64685;DHT22;51109;47.414;18.954;2023-10-31T14:05:07;12.50;99.90
64685;DHT22;51109;47.414;18.954;2023-10-31T14:07:33;12.30;99.90
64685;DHT22;51109;47.414;18.954;2023-10-31T14:10:00;12.30;99.90
64685;DHT22;51109;47.414;18.954;2023-10-31T14:12:26;12.30;99.90
64685;DHT22;51109;47.414;18.954;2023-10-31T14:14:54;12.40;99.90
64685;DHT22;51109;47.414;18.954;2023-10-31T14:17:20;12.40;99.90
64685;DHT22;51109;47.414;18.954;2023-10-31T14:19:48;12.20;99.90
64685;DHT22;51109;47.414;18.954;2023-10-31T14:22:14;12.20;99.90
64685;DHT22;51109;47.414;18.954;2023-10-31T14:24:40;12.20;99.90
64685;DHT22;51109;47.414;18.954;2023-10-31T14:27:06;12.20;99.90
64685;DHT22;51109;47.414;18.954;2023-10-31T14:29:32;12.20;99.90
64685;DHT22;51109;47.414;18.954;2023-10-31T14:32:08;12.30;99.90
64685;DHT22;51109;47.414;18.954;2023-10-31T14:34:35;12.20;99.90
64685;DHT22;51109;47.414;18.954;2023-10-31T14:37:01;12.20;99.90
64685;DHT22;51109;47.414;18.954;2023-10-31T14:39:26;12.20;99.90
64685;DHT22;51109;47.414;18.954;2023-10-31T14:41:52;12.20;99.90
64685;DHT22;51109;47.414;18.954;2023-10-31T14:44:18;12.20;99.90
64685;DHT22;51109;47.414;18.954;2023-10-31T14:46:44;12.30;99.90
64685;DHT22;51109;47.414;18.954;2023-10-31T14:49:10;12.40;99.90
64685;DHT22;51109;47.414;18.954;2023-10-31T14:51:36;12.30;99.90
64685;DHT22;51109;47.414;18.954;2023-10-31T14:54:02;12.30;99.90
64685;DHT22;51109;47.414;18.954;2023-10-31T14:56:28;12.40;99.90
64685;DHT22;51109;47.414;18.954;2023-10-31T14:58:55;12.40;99.90
64685;DHT22;51109;47.414;18.954;2023-10-31T15:01:21;12.40;99.90
64685;DHT22;51109;47.414;18.954;2023-10-31T15:03:47;12.30;99.90
64685;DHT22;51109;47.414;18.954;2023-10-31T15:06:13;12.30;99.90
64685;DHT22;51109;47.414;18.954;2023-10-31T15:08:40;12.20;99.90
64685;DHT22;51109;47.414;18.954;2023-10-31T15:11:06;12.20;99.90
64685;DHT22;51109;47.414;18.954;2023-10-31T15:13:33;12.20;99.90
64685;DHT22;51109;47.414;18.954;2023-10-31T15:15:59;12.10;99.90
64685;DHT22;51109;47.414;18.954;2023-10-31T15:18:25;12.10;99.90
64685;DHT22;51109;47.414;18.954;2023-10-31T15:20:51;12.00;99.90
64685;DHT22;51109;47.414;18.954;2023-10-31T15:23:19;12.00;99.90
64685;DHT22;51109;47.414;18.954;2023-10-31T15:25:45;12.00;99.90
64685;DHT22;51109;47.414;18.954;2023-10-31T15:28:11;12.10;99.90
64685;DHT22;51109;47.414;18.954;2023-10-31T15:30:37;12.10;99.90
64685;DHT22;51109;47.414;18.954;2023-10-31T15:33:03;12.10;99.90
64685;DHT22;51109;47.414;18.954;2023-10-31T15:35:29;12.10;99.90
64685;DHT22;51109;47.414;18.954;2023-10-31T15:37:55;12.10;99.90
64685;DHT22;51109;47.414;18.954;2023-10-31T15:40:21;12.10;99.90
64685;DHT22;51109;47.414;18.954;2023-10-31T15:42:46;12.10;99.90
64685;DHT22;51109;47.414;18.954;2023-10-31T15:45:12;12.10;99.90